Terminal Aerodrome Forecast
Issued by NWS

Home | Current Version | Previous Version | Text Only | Print | Product List | Glossary On
Versions: 1 2 3 4 5 6 7 8 9 10 11 12 13
000
FTUS44 KLIX 240522
TAFMSY
TAF
KMSY 240522Z 2406/2506 19005KT P6SM SCT015 BKN025
     FM240900 21004KT P6SM VCSH BKN020
      TEMPO 2409/2411 1SM TSRA OVC015CB
     FM241500 24004KT P6SM VCSH BKN025 BKN050
     FM241900 12004KT P6SM SHRA BKN035
      TEMPO 2419/2422 4SM TSRA OVC025CB
     FM250100 18005KT P6SM BKN110=

USA.gov is the U.S. government's official web portal to all federal, state and local government web resources and services.